Lincoln City, OR

5:22 AM PDT on September 16, 2014 (GMT -0700)
Newport Municipal | Change Station
CLOSE
Current Station
Airport
Location: Newport Airport,
Elevation: 157 ft
Nearby Weather Stations

Elev 157 ft 44.58 °N, 124.06 °W | Updated 7 minutes ago

Overcast
Overcast
55 °F
Feels Like 55 °F
N
6
Wind Variable Wind from East

Today
High -- | Low -- °F
--% Chance of Precip.
Yesterday
High -- | Low -- °F
Precip. -- in
6:55 AM 7:24 PM
Last Quarter, 46% visible
Pressure 29.95 in
Visibility 10.0 miles
Clouds Mostly Cloudy 2500 ft
Dew Point 54 °F
Humidity 94%
Rainfall 0.00 in
Snow Depth 1 in , 0 in
UV 0 out of 12
Pollen 2.20 out of 12
Air Quality Not available.
Flu Activity Not available.
METAR KONP 161215Z AUTO 10005KT 10SM BKN025 13/12 A2995 RMK AO2

More Conditions Fewer Conditions

Pressure 29.95 in
Visibility 10.0 miles
Clouds Mostly Cloudy 2500 ft
Dew Point 54 °F
Humidity 94%
Rainfall 0.00 in
Snow Depth 1 in , 0 in
UV 0 out of 12
Pollen 2.20 out of 12
Air Quality Not available.
Flu Activity Not available.
METAR KONP 161215Z AUTO 10005KT 10SM BKN025 13/12 A2995 RMK AO2

More Conditions Fewer Conditions

10-Day Weather Forecast

Almanac

Astronomy

Sep. 16, 2014 Rise Set
Actual Time 6:55 AM PDT 7:24 PM PDT
Civil Twilight 6:26 AM PDT 7:53 PM PDT
Nautical Twilight 5:51 AM PDT 8:28 PM PDT
Astronomical Twilight 5:15 AM PDT 9:04 PM PDT
Moon No Moon Rise 3:04 PM PDT
Length of Visible Light 13h 27m
Length of Day
12h 28m
Tomorrow will be 3m 6s shorter.
Last Quarter, 46% of the Moon is Illuminated
Today
Last Quarter
Sep 24
New
Oct 1
First Quarter
Oct 8
Full
Oct 15
Last Quarter

Today's Extremes

State Highs State Lows

Community

WunderPhotos

Upload Photos

1,753,754 photos uploaded!

Nearby

Snow Depth

Station Depth Elevation
Daly Lake 0 in 3600 ft
Strawberry 0 in 5760 ft
King Mountain 0 in 4000 ft
Bigelow Camp 1 in 5120 ft
Sevenmile Marsh 0 in 6200 ft

Earthquake Activity

City Distance Mag. Time & Date
No recent earthquake activity has been reported nearby.
Minimum magnitude displayed is 2.5.

Coastal Water Temperatures

Place Temperature
South Beach, OR 54.0 °F
Charleston, OR 54.0 °F

Nearby Weather Stations